sensor_id;sensor_type;location;lat;lon;timestamp;temperature;humidity
4293;DHT22;2160;51.172;6.808;2022-09-09T04:01:02;20.10;99.90
4293;DHT22;2160;51.172;6.808;2022-09-09T04:03:30;20.10;99.90
4293;DHT22;2160;51.172;6.808;2022-09-09T04:05:59;20.10;99.90
4293;DHT22;2160;51.172;6.808;2022-09-09T04:08:29;20.00;99.90
4293;DHT22;2160;51.172;6.808;2022-09-09T04:10:57;20.10;99.90
4293;DHT22;2160;51.172;6.808;2022-09-09T04:13:25;20.10;99.90
4293;DHT22;2160;51.172;6.808;2022-09-09T04:15:53;20.00;99.90
4293;DHT22;2160;51.172;6.808;2022-09-09T04:18:22;20.00;99.90
4293;DHT22;2160;51.172;6.808;2022-09-09T04:20:50;20.10;99.90
4293;DHT22;2160;51.172;6.808;2022-09-09T04:23:20;20.10;99.90
4293;DHT22;2160;51.172;6.808;2022-09-09T04:25:50;20.10;99.90
4293;DHT22;2160;51.172;6.808;2022-09-09T04:28:19;19.90;99.90
4293;DHT22;2160;51.172;6.808;2022-09-09T04:30:47;19.80;99.90
4293;DHT22;2160;51.172;6.808;2022-09-09T04:33:14;19.90;99.90
4293;DHT22;2160;51.172;6.808;2022-09-09T04:35:46;19.90;99.90
4293;DHT22;2160;51.172;6.808;2022-09-09T04:38:15;19.90;99.90
4293;DHT22;2160;51.172;6.808;2022-09-09T04:40:43;19.90;99.90
4293;DHT22;2160;51.172;6.808;2022-09-09T04:43:11;20.10;99.90
4293;DHT22;2160;51.172;6.808;2022-09-09T04:45:40;20.10;99.90
4293;DHT22;2160;51.172;6.808;2022-09-09T04:48:07;20.20;99.90
4293;DHT22;2160;51.172;6.808;2022-09-09T04:50:35;20.20;99.90
4293;DHT22;2160;51.172;6.808;2022-09-09T04:53:04;20.20;99.90
4293;DHT22;2160;51.172;6.808;2022-09-09T04:55:32;20.30;99.90
4293;DHT22;2160;51.172;6.808;2022-09-09T04:58:03;20.30;99.90
4293;DHT22;2160;51.172;6.808;2022-09-09T05:00:31;20.30;99.90
4293;DHT22;2160;51.172;6.808;2022-09-09T05:03:02;20.30;99.90
4293;DHT22;2160;51.172;6.808;2022-09-09T05:05:29;20.30;99.90
4293;DHT22;2160;51.172;6.808;2022-09-09T05:08:01;20.40;99.90
4293;DHT22;2160;51.172;6.808;2022-09-09T05:10:30;20.30;99.90
4293;DHT22;2160;51.172;6.808;2022-09-09T05:12:58;20.30;99.90
4293;DHT22;2160;51.172;6.808;2022-09-09T05:15:27;20.30;99.90
4293;DHT22;2160;51.172;6.808;2022-09-09T05:17:57;20.20;99.90
4293;DHT22;2160;51.172;6.808;2022-09-09T05:20:24;20.20;99.90
4293;DHT22;2160;51.172;6.808;2022-09-09T05:22:52;20.20;99.90
4293;DHT22;2160;51.172;6.808;2022-09-09T05:25:21;20.20;99.90
4293;DHT22;2160;51.172;6.808;2022-09-09T05:27:53;20.20;99.90
4293;DHT22;2160;51.172;6.808;2022-09-09T05:30:20;20.30;99.90
4293;DHT22;2160;51.172;6.808;2022-09-09T05:32:50;20.40;99.90
4293;DHT22;2160;51.172;6.808;2022-09-09T05:35:18;20.40;99.90
4293;DHT22;2160;51.172;6.808;2022-09-09T05:37:45;20.40;99.90
4293;DHT22;2160;51.172;6.808;2022-09-09T05:40:13;20.40;99.90
4293;DHT22;2160;51.172;6.808;2022-09-09T05:42:40;20.50;99.90
4293;DHT22;2160;51.172;6.808;2022-09-09T05:45:10;20.50;99.90
4293;DHT22;2160;51.172;6.808;2022-09-09T05:47:38;20.50;99.90
4293;DHT22;2160;51.172;6.808;2022-09-09T05:50:08;20.50;99.90
4293;DHT22;2160;51.172;6.808;2022-09-09T05:52:37;20.50;99.90
4293;DHT22;2160;51.172;6.808;2022-09-09T05:55:06;20.50;99.90
4293;DHT22;2160;51.172;6.808;2022-09-09T05:57:33;20.40;99.90
4293;DHT22;2160;51.172;6.808;2022-09-09T06:00:01;20.50;99.90
4293;DHT22;2160;51.172;6.808;2022-09-09T06:02:40;20.50;99.90
4293;DHT22;2160;51.172;6.808;2022-09-09T06:05:10;20.50;99.90
4293;DHT22;2160;51.172;6.808;2022-09-09T06:07:39;20.50;99.90
4293;DHT22;2160;51.172;6.808;2022-09-09T06:10:21;20.60;99.90
4293;DHT22;2160;51.172;6.808;2022-09-09T06:12:48;20.50;99.90
4293;DHT22;2160;51.172;6.808;2022-09-09T06:15:15;20.50;99.90
4293;DHT22;2160;51.172;6.808;2022-09-09T06:17:44;20.40;99.90
4293;DHT22;2160;51.172;6.808;2022-09-09T06:20:12;20.40;99.90
4293;DHT22;2160;51.172;6.808;2022-09-09T06:22:39;20.30;99.90
4293;DHT22;2160;51.172;6.808;2022-09-09T06:25:08;20.30;99.90
4293;DHT22;2160;51.172;6.808;2022-09-09T06:27:38;20.40;99.90
4293;DHT22;2160;51.172;6.808;2022-09-09T06:30:05;20.50;99.90
4293;DHT22;2160;51.172;6.808;2022-09-09T06:32:33;20.50;99.90
4293;DHT22;2160;51.172;6.808;2022-09-09T06:35:05;20.60;99.90
4293;DHT22;2160;51.172;6.808;2022-09-09T06:37:34;20.60;99.90
4293;DHT22;2160;51.172;6.808;2022-09-09T06:40:02;20.50;99.90
4293;DHT22;2160;51.172;6.808;2022-09-09T06:42:30;20.50;99.90
4293;DHT22;2160;51.172;6.808;2022-09-09T06:45:09;20.50;99.90
4293;DHT22;2160;51.172;6.808;2022-09-09T06:47:44;20.40;99.90
4293;DHT22;2160;51.172;6.808;2022-09-09T06:50:12;20.30;99.90
4293;DHT22;2160;51.172;6.808;2022-09-09T06:52:40;20.30;99.90
4293;DHT22;2160;51.172;6.808;2022-09-09T06:55:09;20.40;99.90
4293;DHT22;2160;51.172;6.808;2022-09-09T06:57:36;20.30;99.90
4293;DHT22;2160;51.172;6.808;2022-09-09T07:00:05;20.20;99.90
4293;DHT22;2160;51.172;6.808;2022-09-09T07:02:32;20.40;99.90
4293;DHT22;2160;51.172;6.808;2022-09-09T07:05:05;20.40;99.90
4293;DHT22;2160;51.172;6.808;2022-09-09T07:07:35;20.40;99.90
4293;DHT22;2160;51.172;6.808;2022-09-09T07:10:04;20.50;99.90
4293;DHT22;2160;51.172;6.808;2022-09-09T07:12:31;20.60;99.90
4293;DHT22;2160;51.172;6.808;2022-09-09T07:14:59;20.60;99.90
4293;DHT22;2160;51.172;6.808;2022-09-09T07:17:27;20.60;99.90
4293;DHT22;2160;51.172;6.808;2022-09-09T07:19:55;20.80;99.90
4293;DHT22;2160;51.172;6.808;2022-09-09T07:22:22;20.90;99.90
4293;DHT22;2160;51.172;6.808;2022-09-09T07:24:51;20.80;99.90
4293;DHT22;2160;51.172;6.808;2022-09-09T07:27:18;20.90;99.90
4293;DHT22;2160;51.172;6.808;2022-09-09T07:29:46;20.90;99.90
4293;DHT22;2160;51.172;6.808;2022-09-09T07:32:14;21.10;99.90
4293;DHT22;2160;51.172;6.808;2022-09-09T07:34:42;20.90;99.90
4293;DHT22;2160;51.172;6.808;2022-09-09T07:37:09;21.00;99.90
4293;DHT22;2160;51.172;6.808;2022-09-09T07:39:41;20.90;99.90
4293;DHT22;2160;51.172;6.808;2022-09-09T07:42:10;20.90;99.90
4293;DHT22;2160;51.172;6.808;2022-09-09T07:44:37;21.10;99.90
4293;DHT22;2160;51.172;6.808;2022-09-09T07:47:11;21.10;99.90
4293;DHT22;2160;51.172;6.808;2022-09-09T07:49:42;21.20;99.90
4293;DHT22;2160;51.172;6.808;2022-09-09T07:52:13;21.20;99.90
4293;DHT22;2160;51.172;6.808;2022-09-09T07:54:42;21.10;99.90
4293;DHT22;2160;51.172;6.808;2022-09-09T07:57:13;21.20;99.90
4293;DHT22;2160;51.172;6.808;2022-09-09T07:59:42;21.50;99.90
4293;DHT22;2160;51.172;6.808;2022-09-09T08:02:09;21.20;99.90
4293;DHT22;2160;51.172;6.808;2022-09-09T08:04:36;21.20;99.90
4293;DHT22;2160;51.172;6.808;2022-09-09T08:07:03;21.00;99.90
4293;DHT22;2160;51.172;6.808;2022-09-09T08:09:37;21.00;99.90
4293;DHT22;2160;51.172;6.808;2022-09-09T08:12:10;21.10;99.90
4293;DHT22;2160;51.172;6.808;2022-09-09T08:14:40;21.10;99.90
4293;DHT22;2160;51.172;6.808;2022-09-09T08:17:07;21.10;99.90
4293;DHT22;2160;51.172;6.808;2022-09-09T08:19:34;21.10;99.90
4293;DHT22;2160;51.172;6.808;2022-09-09T08:22:03;21.40;99.90
4293;DHT22;2160;51.172;6.808;2022-09-09T08:24:32;21.40;99.90
4293;DHT22;2160;51.172;6.808;2022-09-09T08:26:59;21.60;99.90
4293;DHT22;2160;51.172;6.808;2022-09-09T08:29:27;21.70;99.90
4293;DHT22;2160;51.172;6.808;2022-09-09T08:31:57;21.70;99.90
4293;DHT22;2160;51.172;6.808;2022-09-09T08:34:26;21.40;99.90
4293;DHT22;2160;51.172;6.808;2022-09-09T08:36:56;21.40;99.90
4293;DHT22;2160;51.172;6.808;2022-09-09T08:39:30;21.50;99.90
4293;DHT22;2160;51.172;6.808;2022-09-09T08:42:15;21.60;99.90
4293;DHT22;2160;51.172;6.808;2022-09-09T08:44:58;21.60;99.90
4293;DHT22;2160;51.172;6.808;2022-09-09T08:47:39;21.60;99.90
4293;DHT22;2160;51.172;6.808;2022-09-09T08:50:18;21.70;99.90
4293;DHT22;2160;51.172;6.808;2022-09-09T08:52:53;21.90;99.90
4293;DHT22;2160;51.172;6.808;2022-09-09T08:55:25;22.10;99.90
4293;DHT22;2160;51.172;6.808;2022-09-09T08:57:57;22.20;99.90
4293;DHT22;2160;51.172;6.808;2022-09-09T09:00:34;22.20;99.90
4293;DHT22;2160;51.172;6.808;2022-09-09T09:03:09;22.10;99.90
4293;DHT22;2160;51.172;6.808;2022-09-09T09:05:46;22.20;99.90
4293;DHT22;2160;51.172;6.808;2022-09-09T09:08:24;22.20;99.90
4293;DHT22;2160;51.172;6.808;2022-09-09T09:10:54;22.10;99.90
4293;DHT22;2160;51.172;6.808;2022-09-09T09:13:30;22.10;99.90
4293;DHT22;2160;51.172;6.808;2022-09-09T09:16:02;21.90;99.90
4293;DHT22;2160;51.172;6.808;2022-09-09T09:18:35;21.90;99.90
4293;DHT22;2160;51.172;6.808;2022-09-09T09:21:10;22.00;99.90
4293;DHT22;2160;51.172;6.808;2022-09-09T09:23:45;21.90;99.90
4293;DHT22;2160;51.172;6.808;2022-09-09T09:26:17;21.80;99.90
4293;DHT22;2160;51.172;6.808;2022-09-09T09:28:44;21.70;99.90
4293;DHT22;2160;51.172;6.808;2022-09-09T09:31:15;21.70;99.90
4293;DHT22;2160;51.172;6.808;2022-09-09T09:33:49;21.60;99.90
4293;DHT22;2160;51.172;6.808;2022-09-09T09:36:18;21.70;99.90
4293;DHT22;2160;51.172;6.808;2022-09-09T09:38:55;21.90;99.90
4293;DHT22;2160;51.172;6.808;2022-09-09T09:41:31;21.90;99.90
4293;DHT22;2160;51.172;6.808;2022-09-09T09:43:59;21.80;99.90
4293;DHT22;2160;51.172;6.808;2022-09-09T09:46:28;21.90;99.90
4293;DHT22;2160;51.172;6.808;2022-09-09T09:49:10;22.10;99.90
4293;DHT22;2160;51.172;6.808;2022-09-09T09:51:39;22.20;99.90
4293;DHT22;2160;51.172;6.808;2022-09-09T09:54:13;22.30;99.90
4293;DHT22;2160;51.172;6.808;2022-09-09T09:56:45;22.40;99.90
4293;DHT22;2160;51.172;6.808;2022-09-09T09:59:21;22.50;99.90
4293;DHT22;2160;51.172;6.808;2022-09-09T10:01:48;22.60;99.90
4293;DHT22;2160;51.172;6.808;2022-09-09T10:04:18;22.60;99.90
4293;DHT22;2160;51.172;6.808;2022-09-09T10:06:47;22.80;99.90
4293;DHT22;2160;51.172;6.808;2022-09-09T10:09:23;22.70;99.90
4293;DHT22;2160;51.172;6.808;2022-09-09T10:11:57;22.80;99.90
4293;DHT22;2160;51.172;6.808;2022-09-09T10:14:30;22.80;99.90
4293;DHT22;2160;51.172;6.808;2022-09-09T10:17:10;23.00;99.90
4293;DHT22;2160;51.172;6.808;2022-09-09T10:19:44;23.00;99.90
4293;DHT22;2160;51.172;6.808;2022-09-09T10:22:26;23.20;99.90
4293;DHT22;2160;51.172;6.808;2022-09-09T10:25:15;23.40;99.90
4293;DHT22;2160;51.172;6.808;2022-09-09T10:27:56;23.50;99.90
4293;DHT22;2160;51.172;6.808;2022-09-09T10:30:31;23.70;99.90
4293;DHT22;2160;51.172;6.808;2022-09-09T10:33:07;23.50;99.90
4293;DHT22;2160;51.172;6.808;2022-09-09T10:35:41;23.40;99.90
4293;DHT22;2160;51.172;6.808;2022-09-09T10:38:14;23.30;99.90
4293;DHT22;2160;51.172;6.808;2022-09-09T10:40:46;23.20;99.90
4293;DHT22;2160;51.172;6.808;2022-09-09T10:43:26;23.30;99.90
4293;DHT22;2160;51.172;6.808;2022-09-09T10:46:03;23.30;99.90
4293;DHT22;2160;51.172;6.808;2022-09-09T10:51:33;23.20;99.90
4293;DHT22;2160;51.172;6.808;2022-09-09T10:54:19;23.10;99.90
4293;DHT22;2160;51.172;6.808;2022-09-09T10:56:55;23.00;99.90
4293;DHT22;2160;51.172;6.808;2022-09-09T10:59:26;23.10;99.90
4293;DHT22;2160;51.172;6.808;2022-09-09T11:01:58;23.20;99.90
4293;DHT22;2160;51.172;6.808;2022-09-09T11:04:29;23.20;99.90
4293;DHT22;2160;51.172;6.808;2022-09-09T11:07:02;23.20;99.90
4293;DHT22;2160;51.172;6.808;2022-09-09T11:09:36;23.10;99.90
4293;DHT22;2160;51.172;6.808;2022-09-09T11:12:05;22.90;99.90
4293;DHT22;2160;51.172;6.808;2022-09-09T11:14:41;22.80;99.90
4293;DHT22;2160;51.172;6.808;2022-09-09T11:17:12;22.90;99.90
4293;DHT22;2160;51.172;6.808;2022-09-09T11:19:43;22.80;99.90
4293;DHT22;2160;51.172;6.808;2022-09-09T11:22:18;22.80;99.90
4293;DHT22;2160;51.172;6.808;2022-09-09T11:24:49;22.60;99.90
4293;DHT22;2160;51.172;6.808;2022-09-09T11:27:21;22.90;99.90
4293;DHT22;2160;51.172;6.808;2022-09-09T11:30:16;23.00;99.90
4293;DHT22;2160;51.172;6.808;2022-09-09T11:33:00;22.90;99.90
4293;DHT22;2160;51.172;6.808;2022-09-09T11:35:37;22.60;99.90
4293;DHT22;2160;51.172;6.808;2022-09-09T11:38:23;22.70;99.90
4293;DHT22;2160;51.172;6.808;2022-09-09T11:40:59;22.80;99.90
4293;DHT22;2160;51.172;6.808;2022-09-09T11:43:30;22.70;99.90
4293;DHT22;2160;51.172;6.808;2022-09-09T11:46:00;22.70;99.90
4293;DHT22;2160;51.172;6.808;2022-09-09T11:48:34;22.90;99.90
4293;DHT22;2160;51.172;6.808;2022-09-09T11:51:04;23.00;99.90
4293;DHT22;2160;51.172;6.808;2022-09-09T11:53:34;23.00;99.90
4293;DHT22;2160;51.172;6.808;2022-09-09T11:56:07;23.10;99.90
4293;DHT22;2160;51.172;6.808;2022-09-09T11:58:54;23.10;99.90
4293;DHT22;2160;51.172;6.808;2022-09-09T12:01:28;23.00;99.90
4293;DHT22;2160;51.172;6.808;2022-09-09T12:04:17;22.80;99.90
4293;DHT22;2160;51.172;6.808;2022-09-09T12:06:46;22.80;99.90
4293;DHT22;2160;51.172;6.808;2022-09-09T12:09:26;22.80;99.90
4293;DHT22;2160;51.172;6.808;2022-09-09T12:12:06;22.60;99.90
4293;DHT22;2160;51.172;6.808;2022-09-09T12:14:42;22.50;99.90
4293;DHT22;2160;51.172;6.808;2022-09-09T12:17:18;22.60;99.90
4293;DHT22;2160;51.172;6.808;2022-09-09T12:19:46;22.50;99.90
4293;DHT22;2160;51.172;6.808;2022-09-09T12:22:20;22.70;99.90
4293;DHT22;2160;51.172;6.808;2022-09-09T12:24:58;22.90;99.90
4293;DHT22;2160;51.172;6.808;2022-09-09T12:27:33;22.90;99.90
4293;DHT22;2160;51.172;6.808;2022-09-09T12:30:07;23.10;99.90
4293;DHT22;2160;51.172;6.808;2022-09-09T12:32:35;23.20;99.90
4293;DHT22;2160;51.172;6.808;2022-09-09T12:35:08;23.30;99.90
4293;DHT22;2160;51.172;6.808;2022-09-09T12:37:39;23.20;99.90
4293;DHT22;2160;51.172;6.808;2022-09-09T12:40:20;23.40;99.90
4293;DHT22;2160;51.172;6.808;2022-09-09T12:42:47;23.10;99.90
4293;DHT22;2160;51.172;6.808;2022-09-09T12:45:16;23.10;99.90
4293;DHT22;2160;51.172;6.808;2022-09-09T12:47:47;23.20;99.90
4293;DHT22;2160;51.172;6.808;2022-09-09T12:50:16;23.30;99.90
4293;DHT22;2160;51.172;6.808;2022-09-09T12:52:44;23.20;99.90
4293;DHT22;2160;51.172;6.808;2022-09-09T12:55:19;23.20;99.90
4293;DHT22;2160;51.172;6.808;2022-09-09T12:57:48;23.10;99.90
4293;DHT22;2160;51.172;6.808;2022-09-09T13:00:19;22.50;99.90
4293;DHT22;2160;51.172;6.808;2022-09-09T13:02:50;22.00;99.90
4293;DHT22;2160;51.172;6.808;2022-09-09T13:05:21;21.80;99.90
4293;DHT22;2160;51.172;6.808;2022-09-09T13:07:49;21.80;99.90
4293;DHT22;2160;51.172;6.808;2022-09-09T13:10:22;21.90;99.90
4293;DHT22;2160;51.172;6.808;2022-09-09T13:12:52;21.90;99.90
4293;DHT22;2160;51.172;6.808;2022-09-09T13:15:21;21.80;99.90
4293;DHT22;2160;51.172;6.808;2022-09-09T13:17:56;21.80;99.90
4293;DHT22;2160;51.172;6.808;2022-09-09T13:20:24;22.00;99.90
4293;DHT22;2160;51.172;6.808;2022-09-09T13:22:53;22.00;99.90
4293;DHT22;2160;51.172;6.808;2022-09-09T13:25:26;22.10;99.90
4293;DHT22;2160;51.172;6.808;2022-09-09T13:27:57;22.10;99.90
4293;DHT22;2160;51.172;6.808;2022-09-09T13:30:27;22.00;99.90
4293;DHT22;2160;51.172;6.808;2022-09-09T13:33:06;21.90;99.90
4293;DHT22;2160;51.172;6.808;2022-09-09T13:35:49;22.00;99.90
4293;DHT22;2160;51.172;6.808;2022-09-09T13:38:17;21.90;99.90
4293;DHT22;2160;51.172;6.808;2022-09-09T13:40:56;22.00;99.90
4293;DHT22;2160;51.172;6.808;2022-09-09T13:43:25;21.90;99.90
4293;DHT22;2160;51.172;6.808;2022-09-09T13:45:54;22.10;99.90
4293;DHT22;2160;51.172;6.808;2022-09-09T13:48:22;22.10;99.90
4293;DHT22;2160;51.172;6.808;2022-09-09T13:50:58;22.20;99.90
4293;DHT22;2160;51.172;6.808;2022-09-09T13:53:25;22.20;99.90
4293;DHT22;2160;51.172;6.808;2022-09-09T13:55:54;22.20;99.90
4293;DHT22;2160;51.172;6.808;2022-09-09T13:58:22;22.20;99.90
4293;DHT22;2160;51.172;6.808;2022-09-09T14:00:51;22.30;99.90
4293;DHT22;2160;51.172;6.808;2022-09-09T14:03:18;22.30;99.90
4293;DHT22;2160;51.172;6.808;2022-09-09T14:05:45;22.20;99.90
4293;DHT22;2160;51.172;6.808;2022-09-09T14:08:23;22.20;99.90
4293;DHT22;2160;51.172;6.808;2022-09-09T14:10:51;22.40;99.90
4293;DHT22;2160;51.172;6.808;2022-09-09T14:13:19;22.50;99.90
4293;DHT22;2160;51.172;6.808;2022-09-09T14:15:48;22.60;99.90
4293;DHT22;2160;51.172;6.808;2022-09-09T14:18:16;22.80;99.90
4293;DHT22;2160;51.172;6.808;2022-09-09T14:20:44;22.70;99.90
4293;DHT22;2160;51.172;6.808;2022-09-09T14:23:12;22.80;99.90
4293;DHT22;2160;51.172;6.808;2022-09-09T14:25:41;22.90;99.90
4293;DHT22;2160;51.172;6.808;2022-09-09T14:28:10;23.00;99.90
4293;DHT22;2160;51.172;6.808;2022-09-09T14:30:39;23.10;99.90
4293;DHT22;2160;51.172;6.808;2022-09-09T14:33:08;23.10;99.90
4293;DHT22;2160;51.172;6.808;2022-09-09T14:35:36;23.10;99.90
4293;DHT22;2160;51.172;6.808;2022-09-09T14:38:04;23.20;99.90
4293;DHT22;2160;51.172;6.808;2022-09-09T14:40:31;23.00;99.90
4293;DHT22;2160;51.172;6.808;2022-09-09T14:42:59;23.10;99.90
4293;DHT22;2160;51.172;6.808;2022-09-09T14:45:26;22.90;99.90
4293;DHT22;2160;51.172;6.808;2022-09-09T14:47:54;22.40;99.90
4293;DHT22;2160;51.172;6.808;2022-09-09T14:50:22;22.10;99.90
4293;DHT22;2160;51.172;6.808;2022-09-09T14:52:49;22.10;99.90
4293;DHT22;2160;51.172;6.808;2022-09-09T14:55:17;21.60;99.90
4293;DHT22;2160;51.172;6.808;2022-09-09T14:57:44;21.60;99.90
4293;DHT22;2160;51.172;6.808;2022-09-09T15:00:12;21.70;99.90
4293;DHT22;2160;51.172;6.808;2022-09-09T15:02:39;21.70;99.90
4293;DHT22;2160;51.172;6.808;2022-09-09T15:05:08;21.60;99.90
4293;DHT22;2160;51.172;6.808;2022-09-09T15:07:35;21.60;99.90
4293;DHT22;2160;51.172;6.808;2022-09-09T15:10:04;21.40;99.90
4293;DHT22;2160;51.172;6.808;2022-09-09T15:12:33;21.30;99.90
4293;DHT22;2160;51.172;6.808;2022-09-09T15:15:01;21.40;99.90
4293;DHT22;2160;51.172;6.808;2022-09-09T15:17:29;21.40;99.90
4293;DHT22;2160;51.172;6.808;2022-09-09T15:19:55;21.30;99.90
4293;DHT22;2160;51.172;6.808;2022-09-09T15:22:24;21.40;99.90
4293;DHT22;2160;51.172;6.808;2022-09-09T15:24:51;21.50;99.90
4293;DHT22;2160;51.172;6.808;2022-09-09T15:27:18;21.50;99.90
4293;DHT22;2160;51.172;6.808;2022-09-09T15:29:45;21.50;99.90
4293;DHT22;2160;51.172;6.808;2022-09-09T15:32:12;21.50;99.90
4293;DHT22;2160;51.172;6.808;2022-09-09T15:34:39;21.50;99.90
4293;DHT22;2160;51.172;6.808;2022-09-09T15:37:06;21.40;99.90
4293;DHT22;2160;51.172;6.808;2022-09-09T15:39:37;21.30;99.90
4293;DHT22;2160;51.172;6.808;2022-09-09T15:42:04;21.50;99.90
4293;DHT22;2160;51.172;6.808;2022-09-09T15:44:38;21.40;99.90
4293;DHT22;2160;51.172;6.808;2022-09-09T15:47:05;21.30;99.90
4293;DHT22;2160;51.172;6.808;2022-09-09T15:49:32;21.40;99.90
4293;DHT22;2160;51.172;6.808;2022-09-09T15:52:00;21.30;99.90
4293;DHT22;2160;51.172;6.808;2022-09-09T15:54:32;21.10;99.90
4293;DHT22;2160;51.172;6.808;2022-09-09T15:57:02;21.20;99.90
4293;DHT22;2160;51.172;6.808;2022-09-09T15:59:33;21.10;99.90
4293;DHT22;2160;51.172;6.808;2022-09-09T16:02:01;21.30;99.90
4293;DHT22;2160;51.172;6.808;2022-09-09T16:04:28;21.10;99.90
4293;DHT22;2160;51.172;6.808;2022-09-09T16:06:58;21.10;99.90
4293;DHT22;2160;51.172;6.808;2022-09-09T16:09:26;21.00;99.90
4293;DHT22;2160;51.172;6.808;2022-09-09T16:11:56;21.10;99.90
4293;DHT22;2160;51.172;6.808;2022-09-09T16:14:25;21.10;99.90
4293;DHT22;2160;51.172;6.808;2022-09-09T16:16:52;21.10;99.90
4293;DHT22;2160;51.172;6.808;2022-09-09T16:19:19;21.30;99.90
4293;DHT22;2160;51.172;6.808;2022-09-09T16:21:47;21.40;99.90
4293;DHT22;2160;51.172;6.808;2022-09-09T16:24:17;21.40;99.90
4293;DHT22;2160;51.172;6.808;2022-09-09T16:26:47;21.30;99.90
4293;DHT22;2160;51.172;6.808;2022-09-09T16:29:15;21.30;99.90
4293;DHT22;2160;51.172;6.808;2022-09-09T16:31:47;21.10;99.90
4293;DHT22;2160;51.172;6.808;2022-09-09T16:34:15;21.10;99.90
4293;DHT22;2160;51.172;6.808;2022-09-09T16:36:43;21.10;99.90
4293;DHT22;2160;51.172;6.808;2022-09-09T16:39:12;21.10;99.90
4293;DHT22;2160;51.172;6.808;2022-09-09T16:41:41;21.10;99.90
4293;DHT22;2160;51.172;6.808;2022-09-09T16:44:09;21.10;99.90
4293;DHT22;2160;51.172;6.808;2022-09-09T16:46:38;21.00;99.90
4293;DHT22;2160;51.172;6.808;2022-09-09T16:49:08;21.00;99.90
4293;DHT22;2160;51.172;6.808;2022-09-09T16:51:36;21.00;99.90
4293;DHT22;2160;51.172;6.808;2022-09-09T16:54:05;21.10;99.90
4293;DHT22;2160;51.172;6.808;2022-09-09T16:56:35;21.20;99.90
4293;DHT22;2160;51.172;6.808;2022-09-09T16:59:04;21.10;99.90
4293;DHT22;2160;51.172;6.808;2022-09-09T17:01:34;21.10;99.90
4293;DHT22;2160;51.172;6.808;2022-09-09T17:04:07;21.10;99.90
4293;DHT22;2160;51.172;6.808;2022-09-09T17:06:35;20.90;99.90
4293;DHT22;2160;51.172;6.808;2022-09-09T17:09:05;20.90;99.90
4293;DHT22;2160;51.172;6.808;2022-09-09T17:11:33;21.00;99.90
4293;DHT22;2160;51.172;6.808;2022-09-09T17:14:00;21.00;99.90
4293;DHT22;2160;51.172;6.808;2022-09-09T17:16:29;21.20;99.90
4293;DHT22;2160;51.172;6.808;2022-09-09T17:18:57;21.00;99.90
4293;DHT22;2160;51.172;6.808;2022-09-09T17:21:27;21.00;99.90
4293;DHT22;2160;51.172;6.808;2022-09-09T17:23:56;20.90;99.90
4293;DHT22;2160;51.172;6.808;2022-09-09T17:26:25;20.90;99.90
4293;DHT22;2160;51.172;6.808;2022-09-09T17:28:53;21.00;99.90
4293;DHT22;2160;51.172;6.808;2022-09-09T17:31:21;20.70;99.90
4293;DHT22;2160;51.172;6.808;2022-09-09T17:33:50;20.70;99.90
4293;DHT22;2160;51.172;6.808;2022-09-09T17:36:19;20.60;99.90
4293;DHT22;2160;51.172;6.808;2022-09-09T17:38:48;20.70;99.90
4293;DHT22;2160;51.172;6.808;2022-09-09T17:41:18;20.60;99.90
4293;DHT22;2160;51.172;6.808;2022-09-09T17:43:45;20.70;99.90
4293;DHT22;2160;51.172;6.808;2022-09-09T17:46:14;20.70;99.90
4293;DHT22;2160;51.172;6.808;2022-09-09T17:48:43;20.50;99.90
4293;DHT22;2160;51.172;6.808;2022-09-09T17:51:12;20.50;99.90
4293;DHT22;2160;51.172;6.808;2022-09-09T17:53:41;20.50;99.90
4293;DHT22;2160;51.172;6.808;2022-09-09T17:56:11;20.40;99.90
4293;DHT22;2160;51.172;6.808;2022-09-09T17:58:38;20.20;99.90
4293;DHT22;2160;51.172;6.808;2022-09-09T18:01:07;20.10;99.90
4293;DHT22;2160;51.172;6.808;2022-09-09T18:03:35;20.00;99.90
4293;DHT22;2160;51.172;6.808;2022-09-09T18:06:03;20.00;99.90
4293;DHT22;2160;51.172;6.808;2022-09-09T18:08:31;20.00;99.90
4293;DHT22;2160;51.172;6.808;2022-09-09T18:10:58;19.90;99.90
4293;DHT22;2160;51.172;6.808;2022-09-09T18:13:27;19.80;99.90
4293;DHT22;2160;51.172;6.808;2022-09-09T18:15:55;19.80;99.90
4293;DHT22;2160;51.172;6.808;2022-09-09T18:18:23;19.80;99.90
4293;DHT22;2160;51.172;6.808;2022-09-09T18:20:57;19.90;99.90
4293;DHT22;2160;51.172;6.808;2022-09-09T18:23:24;19.90;99.90
4293;DHT22;2160;51.172;6.808;2022-09-09T18:25:51;20.00;99.90
4293;DHT22;2160;51.172;6.808;2022-09-09T18:28:18;20.00;99.90
4293;DHT22;2160;51.172;6.808;2022-09-09T18:30:47;20.00;99.90
4293;DHT22;2160;51.172;6.808;2022-09-09T18:33:14;20.00;99.90
4293;DHT22;2160;51.172;6.808;2022-09-09T18:35:41;19.80;99.90
4293;DHT22;2160;51.172;6.808;2022-09-09T18:38:09;19.70;99.90
4293;DHT22;2160;51.172;6.808;2022-09-09T18:40:35;19.80;99.90
4293;DHT22;2160;51.172;6.808;2022-09-09T18:43:03;19.80;99.90
4293;DHT22;2160;51.172;6.808;2022-09-09T18:45:34;19.80;99.90
4293;DHT22;2160;51.172;6.808;2022-09-09T18:48:03;20.00;99.90
4293;DHT22;2160;51.172;6.808;2022-09-09T18:50:32;19.80;99.90
4293;DHT22;2160;51.172;6.808;2022-09-09T18:52:59;19.80;99.90
4293;DHT22;2160;51.172;6.808;2022-09-09T18:55:26;19.80;99.90
4293;DHT22;2160;51.172;6.808;2022-09-09T18:57:53;19.70;99.90
4293;DHT22;2160;51.172;6.808;2022-09-09T19:00:23;19.80;99.90
4293;DHT22;2160;51.172;6.808;2022-09-09T19:02:50;19.70;99.90
4293;DHT22;2160;51.172;6.808;2022-09-09T19:05:19;19.70;99.90
4293;DHT22;2160;51.172;6.808;2022-09-09T19:07:46;19.70;99.90
4293;DHT22;2160;51.172;6.808;2022-09-09T19:10:14;19.80;99.90
4293;DHT22;2160;51.172;6.808;2022-09-09T19:12:41;19.90;99.90
4293;DHT22;2160;51.172;6.808;2022-09-09T19:15:08;19.90;99.90
4293;DHT22;2160;51.172;6.808;2022-09-09T19:17:35;19.80;99.90
4293;DHT22;2160;51.172;6.808;2022-09-09T19:20:03;19.80;99.90
4293;DHT22;2160;51.172;6.808;2022-09-09T19:22:34;19.80;99.90
4293;DHT22;2160;51.172;6.808;2022-09-09T19:25:02;19.90;99.90
4293;DHT22;2160;51.172;6.808;2022-09-09T19:27:29;19.90;99.90
4293;DHT22;2160;51.172;6.808;2022-09-09T19:29:56;19.90;99.90
4293;DHT22;2160;51.172;6.808;2022-09-09T19:32:23;19.90;99.90
4293;DHT22;2160;51.172;6.808;2022-09-09T19:34:50;20.00;99.90
4293;DHT22;2160;51.172;6.808;2022-09-09T19:37:17;20.10;99.90
4293;DHT22;2160;51.172;6.808;2022-09-09T19:39:45;20.20;99.90
4293;DHT22;2160;51.172;6.808;2022-09-09T19:42:12;20.20;99.90
4293;DHT22;2160;51.172;6.808;2022-09-09T19:44:39;20.00;99.90
4293;DHT22;2160;51.172;6.808;2022-09-09T19:47:06;19.90;99.90
4293;DHT22;2160;51.172;6.808;2022-09-09T19:49:33;19.70;99.90
4293;DHT22;2160;51.172;6.808;2022-09-09T19:52:01;19.70;99.90
4293;DHT22;2160;51.172;6.808;2022-09-09T19:54:28;19.70;99.90
4293;DHT22;2160;51.172;6.808;2022-09-09T19:56:57;19.60;99.90
4293;DHT22;2160;51.172;6.808;2022-09-09T19:59:26;19.60;99.90
4293;DHT22;2160;51.172;6.808;2022-09-09T20:01:53;19.50;99.90
4293;DHT22;2160;51.172;6.808;2022-09-09T20:04:21;19.50;99.90
4293;DHT22;2160;51.172;6.808;2022-09-09T20:06:48;19.50;99.90
4293;DHT22;2160;51.172;6.808;2022-09-09T20:09:17;19.60;99.90
4293;DHT22;2160;51.172;6.808;2022-09-09T20:11:46;19.60;99.90
4293;DHT22;2160;51.172;6.808;2022-09-09T20:14:15;19.60;99.90
4293;DHT22;2160;51.172;6.808;2022-09-09T20:16:43;19.50;99.90
4293;DHT22;2160;51.172;6.808;2022-09-09T20:19:12;19.50;99.90
4293;DHT22;2160;51.172;6.808;2022-09-09T20:21:41;19.60;99.90
4293;DHT22;2160;51.172;6.808;2022-09-09T20:24:11;19.60;99.90